createdAt,value
2023-04-29T00:00:06.964Z,147.73
2023-04-29T00:01:06.953Z,146.31
2023-04-29T00:02:07.035Z,145.57
2023-04-29T00:03:07.087Z,146.13
2023-04-29T00:04:07.075Z,144.00
2023-04-29T00:05:07.290Z,145.49
2023-04-29T00:06:07.090Z,145.00
2023-04-29T00:07:06.954Z,146.98
2023-04-29T00:08:06.955Z,146.92
2023-04-29T00:09:06.941Z,147.44
2023-04-29T00:10:06.938Z,145.56
2023-04-29T00:11:07.003Z,145.42
2023-04-29T00:12:06.945Z,143.09
2023-04-29T00:13:06.943Z,143.06
2023-04-29T00:14:06.952Z,141.93
2023-04-29T00:15:06.977Z,144.06
2023-04-29T00:16:06.964Z,144.52
2023-04-29T00:17:07.018Z,142.92
2023-04-29T00:18:06.996Z,144.44
2023-04-29T00:19:06.971Z,144.53
2023-04-29T00:20:06.963Z,141.28
2023-04-29T00:21:06.970Z,141.50
2023-04-29T00:22:06.967Z,144.32
2023-04-29T00:23:06.977Z,142.05
2023-04-29T00:24:06.963Z,143.37
2023-04-29T00:25:06.971Z,142.65
2023-04-29T00:26:06.976Z,143.12
2023-04-29T00:27:06.963Z,142.07
2023-04-29T00:28:06.986Z,144.49
2023-04-29T00:29:06.974Z,143.46
2023-04-29T00:30:06.969Z,144.12
2023-04-29T00:31:07.027Z,141.30
2023-04-29T00:32:07.553Z,143.10
2023-04-29T00:33:07.030Z,145.31
2023-04-29T00:34:06.975Z,144.94
2023-04-29T00:35:06.964Z,143.41
2023-04-29T00:36:06.985Z,144.63
2023-04-29T00:37:06.960Z,143.43
2023-04-29T00:38:06.961Z,145.58
2023-04-29T00:39:06.960Z,145.12
2023-04-29T00:40:06.965Z,143.52
2023-04-29T00:41:06.965Z,144.42
2023-04-29T00:42:06.973Z,145.09
2023-04-29T00:43:06.966Z,145.20
2023-04-29T00:44:06.964Z,144.87
2023-04-29T00:45:08.270Z,145.69
2023-04-29T00:46:07.012Z,142.39
2023-04-29T00:47:06.964Z,144.84
2023-04-29T00:48:07.035Z,142.99
2023-04-29T00:49:06.970Z,144.47
2023-04-29T00:50:06.975Z,142.09
2023-04-29T00:51:06.983Z,142.00
2023-04-29T00:52:06.977Z,144.03
2023-04-29T00:53:06.981Z,143.83
2023-04-29T00:54:06.988Z,144.04
2023-04-29T00:55:06.992Z,147.08
2023-04-29T00:56:06.984Z,143.87
2023-04-29T00:57:07.000Z,143.51
2023-04-29T00:58:06.991Z,143.52
2023-04-29T00:59:07.017Z,144.31
2023-04-29T01:00:07.000Z,144.70
2023-04-29T01:01:07.025Z,145.67
2023-04-29T01:02:06.994Z,145.15
2023-04-29T01:03:07.070Z,145.26
2023-04-29T01:04:07.312Z,144.51
2023-04-29T01:05:06.997Z,143.94
2023-04-29T01:06:06.993Z,140.11
2023-04-29T01:07:06.997Z,144.20
2023-04-29T01:08:07.009Z,143.16
2023-04-29T01:09:06.995Z,142.77
2023-04-29T01:10:07.006Z,142.31
2023-04-29T01:11:07.006Z,142.30
2023-04-29T01:12:07.017Z,143.21
2023-04-29T01:13:07.006Z,142.06
2023-04-29T01:14:06.997Z,144.12
2023-04-29T01:15:06.997Z,141.52
2023-04-29T01:16:07.032Z,142.51
2023-04-29T01:17:07.072Z,143.88
2023-04-29T01:18:07.040Z,141.88
2023-04-29T01:19:06.990Z,142.12
2023-04-29T01:20:06.992Z,141.73
2023-04-29T01:21:06.988Z,141.64
2023-04-29T01:22:06.989Z,140.00
2023-04-29T01:23:06.986Z,140.72
2023-04-29T01:24:06.986Z,137.98
2023-04-29T01:25:06.982Z,141.45
2023-04-29T01:26:06.980Z,138.24
2023-04-29T01:27:06.985Z,139.30
2023-04-29T01:28:07.039Z,137.12
2023-04-29T01:29:06.988Z,135.69
2023-04-29T01:30:06.981Z,135.79
2023-04-29T01:31:07.020Z,136.83
2023-04-29T01:32:06.990Z,138.10
2023-04-29T01:33:07.027Z,134.47
2023-04-29T01:34:07.010Z,133.66
2023-04-29T01:35:07.005Z,135.93
2023-04-29T01:36:07.013Z,134.41
2023-04-29T01:37:07.010Z,134.96
2023-04-29T01:38:07.017Z,132.99
2023-04-29T01:39:07.012Z,135.55
2023-04-29T01:40:07.025Z,135.00
2023-04-29T01:41:07.034Z,132.86
2023-04-29T01:42:07.070Z,134.50
2023-04-29T01:43:07.134Z,132.40
2023-04-29T01:44:07.058Z,131.69
2023-04-29T01:45:07.038Z,131.09
2023-04-29T01:46:07.044Z,132.98
2023-04-29T01:47:07.112Z,131.03
2023-04-29T01:48:07.088Z,130.12
2023-04-29T01:49:07.051Z,131.26
2023-04-29T01:50:07.052Z,128.10
2023-04-29T01:51:07.043Z,129.76
2023-04-29T01:52:07.037Z,129.29
2023-04-29T01:53:07.042Z,128.17
2023-04-29T01:54:07.036Z,129.46
2023-04-29T01:55:07.058Z,128.54
2023-04-29T01:56:07.022Z,128.67
2023-04-29T01:57:07.024Z,129.62
2023-04-29T01:58:07.021Z,127.54
2023-04-29T01:59:07.025Z,130.69
2023-04-29T02:00:07.044Z,126.68
2023-04-29T02:01:07.109Z,129.31
2023-04-29T02:02:07.038Z,127.71
2023-04-29T02:03:07.155Z,128.93
2023-04-29T02:04:07.152Z,129.35
2023-04-29T02:05:07.031Z,128.61
2023-04-29T02:06:07.049Z,129.80
2023-04-29T02:07:07.027Z,128.53
2023-04-29T02:08:07.075Z,128.70
2023-04-29T02:09:07.035Z,129.24
2023-04-29T02:10:07.029Z,128.69
2023-04-29T02:11:07.022Z,128.69
2023-04-29T02:12:07.098Z,130.66
2023-04-29T02:13:07.019Z,130.17
2023-04-29T02:14:07.024Z,128.99
2023-04-29T02:15:07.025Z,130.11
2023-04-29T02:16:07.045Z,130.68
2023-04-29T02:17:07.025Z,129.64
2023-04-29T02:18:07.069Z,133.97
2023-04-29T02:19:07.021Z,128.46
2023-04-29T02:20:07.020Z,129.99
2023-04-29T02:21:07.016Z,129.55
2023-04-29T02:22:07.016Z,129.22
2023-04-29T02:23:07.019Z,129.44
2023-04-29T02:24:07.021Z,131.64
2023-04-29T02:25:07.032Z,130.66
2023-04-29T02:26:07.025Z,128.85
2023-04-29T02:27:07.040Z,130.61
2023-04-29T02:28:07.035Z,130.34
2023-04-29T02:29:07.027Z,128.60
2023-04-29T02:30:07.034Z,131.27
2023-04-29T02:31:07.054Z,129.65
2023-04-29T02:32:07.055Z,127.68
2023-04-29T02:33:08.406Z,128.71
2023-04-29T02:34:07.009Z,130.46
2023-04-29T02:35:07.015Z,130.05
2023-04-29T02:36:07.007Z,127.22
2023-04-29T02:37:07.002Z,128.47
2023-04-29T02:38:07.006Z,130.28
2023-04-29T02:39:07.001Z,130.77
2023-04-29T02:40:07.005Z,129.18
2023-04-29T02:41:07.007Z,130.03
2023-04-29T02:42:07.012Z,131.85
2023-04-29T02:43:07.011Z,127.29
2023-04-29T02:44:07.011Z,128.13
2023-04-29T02:45:07.022Z,126.65
2023-04-29T02:46:07.083Z,128.84
2023-04-29T02:47:07.015Z,127.81
2023-04-29T02:48:07.089Z,125.56
2023-04-29T02:49:07.020Z,127.55
2023-04-29T02:50:07.034Z,127.42
2023-04-29T02:51:07.015Z,125.28
2023-04-29T02:52:07.025Z,130.81
2023-04-29T02:53:07.016Z,130.28
2023-04-29T02:54:07.022Z,128.81
2023-04-29T02:55:07.010Z,128.91
2023-04-29T02:56:07.015Z,130.11
2023-04-29T02:57:07.002Z,129.71
2023-04-29T02:58:07.011Z,130.78
2023-04-29T02:59:06.999Z,128.85
2023-04-29T03:00:07.001Z,126.06
2023-04-29T03:01:07.036Z,128.17
2023-04-29T03:02:07.043Z,127.44
2023-04-29T03:03:07.082Z,126.73
2023-04-29T03:04:07.157Z,129.28
2023-04-29T03:05:06.985Z,126.48
2023-04-29T03:06:06.978Z,127.67
2023-04-29T03:07:06.975Z,126.44
2023-04-29T03:08:06.978Z,127.92
2023-04-29T03:09:06.999Z,128.31
2023-04-29T03:10:06.969Z,124.83
2023-04-29T03:11:06.965Z,126.25
2023-04-29T03:12:06.991Z,123.20
2023-04-29T03:13:06.966Z,125.00
2023-04-29T03:14:06.979Z,125.28
2023-04-29T03:15:06.953Z,123.61
2023-04-29T03:16:06.965Z,124.22
2023-04-29T03:17:07.029Z,123.24
2023-04-29T03:18:06.978Z,122.25
2023-04-29T03:19:06.932Z,123.54
2023-04-29T03:20:06.932Z,122.22
2023-04-29T03:21:06.929Z,123.78
2023-04-29T03:22:06.923Z,121.29
2023-04-29T03:23:06.918Z,119.81
2023-04-29T03:24:06.919Z,121.64
2023-04-29T03:25:06.929Z,121.57
2023-04-29T03:26:06.976Z,123.12
2023-04-29T03:27:06.928Z,119.55
2023-04-29T03:28:06.937Z,120.57
2023-04-29T03:29:06.940Z,119.27
2023-04-29T03:30:06.944Z,119.55
2023-04-29T03:31:06.958Z,120.62
2023-04-29T03:32:06.904Z,121.73
2023-04-29T03:33:06.942Z,117.65
2023-04-29T03:34:06.892Z,121.83
2023-04-29T03:35:06.916Z,118.54
2023-04-29T03:36:06.919Z,119.93
2023-04-29T03:37:06.894Z,121.27
2023-04-29T03:38:06.913Z,119.00
2023-04-29T03:39:06.891Z,120.35
2023-04-29T03:40:06.883Z,119.06
2023-04-29T03:41:06.895Z,121.56
2023-04-29T03:42:06.879Z,120.15
2023-04-29T03:43:06.929Z,118.24
2023-04-29T03:44:06.917Z,118.61
2023-04-29T03:45:06.864Z,117.49
2023-04-29T03:46:06.881Z,116.47
2023-04-29T03:47:06.857Z,121.27
2023-04-29T03:48:06.947Z,119.20
2023-04-29T03:49:06.837Z,118.46
2023-04-29T03:50:06.848Z,115.79
2023-04-29T03:51:06.859Z,115.88
2023-04-29T03:52:06.864Z,118.46
2023-04-29T03:53:06.854Z,116.31
2023-04-29T03:54:06.861Z,116.14
2023-04-29T03:55:06.848Z,117.39
2023-04-29T03:56:06.891Z,117.10
2023-04-29T03:57:06.857Z,120.43
2023-04-29T03:58:06.860Z,116.98
2023-04-29T03:59:06.841Z,120.02
2023-04-29T04:00:06.847Z,116.99
2023-04-29T04:01:06.849Z,115.62
2023-04-29T04:02:06.905Z,115.42
2023-04-29T04:03:06.901Z,116.46
2023-04-29T04:04:07.054Z,115.76
2023-04-29T04:05:06.912Z,115.96
2023-04-29T04:06:06.828Z,117.05
2023-04-29T04:07:06.840Z,118.29
2023-04-29T04:08:06.859Z,116.85
2023-04-29T04:09:06.837Z,115.92
2023-04-29T04:10:06.832Z,117.09
2023-04-29T04:11:06.823Z,114.52
2023-04-29T04:12:06.865Z,115.79
2023-04-29T04:13:06.842Z,114.95
2023-04-29T04:14:06.815Z,115.62
2023-04-29T04:15:06.845Z,113.00
2023-04-29T04:16:06.841Z,116.45
2023-04-29T04:17:06.835Z,115.76
2023-04-29T04:18:06.822Z,114.45
2023-04-29T04:19:06.815Z,113.99
2023-04-29T04:20:06.813Z,113.28
2023-04-29T04:21:06.836Z,113.93
2023-04-29T04:22:06.808Z,115.63
2023-04-29T04:23:06.802Z,112.60
2023-04-29T04:24:06.795Z,113.20
2023-04-29T04:25:06.788Z,114.53
2023-04-29T04:26:06.787Z,115.52
2023-04-29T04:27:06.796Z,112.83
2023-04-29T04:28:07.671Z,114.82
2023-04-29T04:29:06.785Z,114.67
2023-04-29T04:30:06.790Z,115.20
2023-04-29T04:31:06.786Z,114.93
2023-04-29T04:32:06.914Z,116.16
2023-04-29T04:33:06.831Z,114.80
2023-04-29T04:35:06.803Z,111.81
2023-04-29T04:36:06.795Z,115.43
2023-04-29T04:37:06.794Z,113.63
2023-04-29T04:38:06.797Z,113.30
2023-04-29T04:39:06.784Z,114.14
2023-04-29T04:40:06.786Z,113.88
2023-04-29T04:41:06.781Z,112.00
2023-04-29T04:42:06.787Z,113.55
2023-04-29T04:43:06.788Z,113.82
2023-04-29T04:44:06.775Z,112.50
2023-04-29T04:45:06.792Z,114.15
2023-04-29T04:46:06.812Z,113.46
2023-04-29T04:47:06.809Z,112.79
2023-04-29T04:48:06.818Z,111.77
2023-04-29T04:49:06.768Z,114.06
2023-04-29T04:50:06.767Z,113.29
2023-04-29T04:51:06.744Z,112.85
2023-04-29T04:52:06.735Z,112.43
2023-04-29T04:53:06.747Z,112.78
2023-04-29T04:54:06.752Z,110.42
2023-04-29T04:55:06.745Z,113.14
2023-04-29T04:56:06.752Z,111.44
2023-04-29T04:57:06.749Z,111.30
2023-04-29T04:58:06.736Z,109.63
2023-04-29T04:59:06.717Z,109.06
2023-04-29T05:00:06.731Z,111.15
2023-04-29T05:01:06.776Z,112.38
2023-04-29T05:02:06.756Z,112.06
2023-04-29T05:03:06.806Z,108.62
2023-04-29T05:04:06.848Z,111.98
2023-04-29T05:05:06.703Z,111.82
2023-04-29T05:06:06.691Z,112.34
2023-04-29T05:07:06.698Z,112.27
2023-04-29T05:08:06.705Z,108.65
2023-04-29T05:09:06.680Z,115.10
2023-04-29T05:10:06.811Z,111.59
2023-04-29T05:11:06.683Z,110.29
2023-04-29T05:12:06.674Z,111.26
2023-04-29T05:13:06.677Z,110.11
2023-04-29T05:14:06.666Z,110.87
2023-04-29T05:15:06.685Z,111.11
2023-04-29T05:16:06.800Z,110.30
2023-04-29T05:17:06.729Z,107.65
2023-04-29T05:18:06.715Z,109.67
2023-04-29T05:19:06.657Z,109.30
2023-04-29T05:20:06.647Z,108.39
2023-04-29T05:21:06.724Z,108.56
2023-04-29T05:22:06.654Z,111.32
2023-04-29T05:23:06.627Z,113.45
2023-04-29T05:24:06.658Z,108.94
2023-04-29T05:25:06.639Z,109.62
2023-04-29T05:26:06.629Z,106.12
2023-04-29T05:27:06.632Z,107.66
2023-04-29T05:28:06.630Z,107.67
2023-04-29T05:29:06.633Z,107.41
2023-04-29T05:30:06.638Z,106.75
2023-04-29T05:31:06.738Z,107.76
2023-04-29T05:32:06.646Z,107.56
2023-04-29T05:33:06.655Z,110.50
2023-04-29T05:34:06.636Z,107.68
2023-04-29T05:35:07.415Z,107.04
2023-04-29T05:36:06.652Z,107.02
2023-04-29T05:37:06.621Z,108.31
2023-04-29T05:38:06.618Z,109.02
2023-04-29T05:39:07.188Z,105.52
2023-04-29T05:40:06.621Z,109.04
2023-04-29T05:41:06.624Z,107.50
2023-04-29T05:42:06.646Z,106.36
2023-04-29T05:43:06.627Z,107.81
2023-04-29T05:44:06.629Z,106.08
2023-04-29T05:45:06.630Z,106.82
2023-04-29T05:46:06.685Z,106.16
2023-04-29T05:47:06.639Z,106.35
2023-04-29T05:48:06.692Z,105.98
2023-04-29T05:49:06.623Z,107.45
2023-04-29T05:50:06.631Z,104.95
2023-04-29T05:51:06.625Z,104.42
2023-04-29T05:52:06.711Z,108.32
2023-04-29T05:53:06.612Z,109.19
2023-04-29T05:54:06.621Z,106.71
2023-04-29T05:55:06.618Z,106.20
2023-04-29T05:56:06.619Z,105.39
2023-04-29T05:57:06.630Z,109.01
2023-04-29T05:58:06.633Z,107.17
2023-04-29T05:59:06.629Z,107.49
2023-04-29T06:00:06.615Z,107.02
2023-04-29T06:01:06.619Z,105.26
2023-04-29T06:02:06.609Z,104.21
2023-04-29T06:03:06.778Z,108.36
2023-04-29T06:04:06.747Z,106.54
2023-04-29T06:05:06.863Z,105.98
2023-04-29T06:06:06.676Z,105.18
2023-04-29T06:07:06.603Z,104.61
2023-04-29T06:08:06.584Z,107.05
2023-04-29T06:09:13.407Z,101.69
2023-04-29T06:10:07.570Z,101.92
2023-04-29T06:11:06.552Z,102.09
2023-04-29T06:12:06.546Z,103.01
2023-04-29T06:13:06.514Z,103.89
2023-04-29T06:14:06.485Z,105.73
2023-04-29T06:15:06.467Z,104.65
2023-04-29T06:16:06.489Z,103.55
2023-04-29T06:17:06.427Z,104.74
2023-04-29T06:18:06.514Z,103.87
2023-04-29T06:19:06.405Z,103.43
2023-04-29T06:20:06.383Z,103.57
2023-04-29T06:21:06.370Z,101.21
2023-04-29T06:22:06.387Z,102.49
2023-04-29T06:23:06.351Z,102.51
2023-04-29T06:24:06.317Z,102.39
2023-04-29T06:25:06.305Z,103.60
2023-04-29T06:26:06.282Z,104.49
2023-04-29T06:27:06.279Z,102.55
2023-04-29T06:28:06.263Z,102.17
2023-04-29T06:29:06.283Z,103.92
2023-04-29T06:30:06.227Z,107.86
2023-04-29T06:31:06.269Z,104.37
2023-04-29T06:32:06.272Z,103.29
2023-04-29T06:33:06.201Z,104.00
2023-04-29T06:34:06.158Z,101.69
2023-04-29T06:35:06.135Z,103.22
2023-04-29T06:36:06.125Z,103.45
2023-04-29T06:37:06.106Z,101.49
2023-04-29T06:38:06.092Z,103.24
2023-04-29T06:39:06.102Z,102.14
2023-04-29T06:40:06.056Z,105.89
2023-04-29T06:41:06.038Z,105.73
2023-04-29T06:42:06.039Z,104.03
2023-04-29T06:43:06.024Z,104.18
2023-04-29T06:44:05.994Z,106.51
2023-04-29T06:45:05.975Z,106.87
2023-04-29T06:46:05.980Z,103.13
2023-04-29T06:47:06.016Z,104.54
2023-04-29T06:48:05.994Z,104.61
2023-04-29T06:49:05.944Z,102.33
2023-04-29T06:50:05.929Z,104.62
2023-04-29T06:51:05.918Z,106.77
2023-04-29T06:52:05.909Z,102.63
2023-04-29T06:53:05.915Z,101.92
2023-04-29T06:54:05.886Z,101.51
2023-04-29T06:55:05.885Z,105.14
2023-04-29T06:56:05.864Z,103.30
2023-04-29T06:57:05.863Z,102.66
2023-04-29T06:58:05.845Z,102.59
2023-04-29T06:59:05.839Z,101.57
2023-04-29T07:00:05.827Z,101.69
2023-04-29T07:01:05.884Z,102.35
2023-04-29T07:02:05.815Z,104.34
2023-04-29T07:03:05.928Z,100.94
2023-04-29T07:04:05.851Z,103.12
2023-04-29T07:05:05.830Z,101.22
2023-04-29T07:06:05.832Z,101.82
2023-04-29T07:07:05.833Z,99.48
2023-04-29T07:08:05.840Z,101.43
2023-04-29T07:09:05.853Z,103.02
2023-04-29T07:10:05.873Z,102.90
2023-04-29T07:11:05.882Z,99.34
2023-04-29T07:12:05.902Z,101.56
2023-04-29T07:13:05.898Z,99.95
2023-04-29T07:14:05.962Z,97.08
2023-04-29T07:15:05.918Z,102.46
2023-04-29T07:16:05.955Z,99.33
2023-04-29T07:17:06.071Z,103.76
2023-04-29T07:18:05.989Z,98.59
2023-04-29T07:19:05.963Z,100.81
2023-04-29T07:20:05.981Z,101.00
2023-04-29T07:21:05.985Z,102.75
2023-04-29T07:22:06.006Z,101.63
2023-04-29T07:23:06.011Z,100.15
2023-04-29T07:24:06.031Z,101.70
2023-04-29T07:25:06.033Z,99.20
2023-04-29T07:26:06.050Z,100.54
2023-04-29T07:27:06.070Z,100.53
2023-04-29T07:28:06.082Z,100.74
2023-04-29T07:29:06.090Z,100.54
2023-04-29T07:30:06.125Z,105.03
2023-04-29T07:31:06.168Z,101.78
2023-04-29T07:32:06.177Z,102.65
2023-04-29T07:33:06.212Z,102.12
2023-04-29T07:34:06.215Z,101.06
2023-04-29T07:35:06.169Z,104.29
2023-04-29T07:36:06.191Z,102.12
2023-04-29T07:37:06.206Z,102.22
2023-04-29T07:38:06.213Z,102.41
2023-04-29T07:39:06.237Z,99.96
2023-04-29T07:40:06.241Z,102.69
2023-04-29T07:41:06.260Z,104.74
2023-04-29T07:42:06.293Z,104.90
2023-04-29T07:43:06.303Z,101.02
2023-04-29T07:44:06.301Z,101.23
2023-04-29T07:45:06.313Z,103.89
2023-04-29T07:46:06.360Z,103.27
2023-04-29T07:47:06.340Z,104.33
2023-04-29T07:48:06.537Z,104.25
2023-04-29T07:49:06.374Z,101.83
2023-04-29T07:50:06.387Z,102.37
2023-04-29T07:51:06.412Z,101.27
2023-04-29T07:52:06.421Z,103.42
2023-04-29T07:53:06.434Z,100.43
2023-04-29T07:54:06.448Z,103.36
2023-04-29T07:55:06.493Z,101.98
2023-04-29T07:56:06.500Z,102.85
2023-04-29T07:57:06.491Z,102.15
2023-04-29T07:58:06.512Z,105.51
2023-04-29T07:59:06.526Z,103.06
2023-04-29T08:00:06.546Z,104.71
2023-04-29T08:01:06.570Z,105.37
2023-04-29T08:02:06.578Z,102.44
2023-04-29T08:03:06.758Z,103.40
2023-04-29T08:04:06.868Z,99.80
2023-04-29T08:05:07.063Z,102.14
2023-04-29T08:06:06.700Z,99.20
2023-04-29T08:07:06.659Z,105.21
2023-04-29T08:08:06.666Z,100.18
2023-04-29T08:09:06.685Z,102.51
2023-04-29T08:10:06.711Z,105.95
2023-04-29T08:11:06.791Z,101.41
2023-04-29T08:12:06.725Z,104.50
2023-04-29T08:13:06.733Z,101.74
2023-04-29T08:14:06.766Z,102.35
2023-04-29T08:15:07.774Z,103.57
2023-04-29T08:16:06.773Z,102.06
2023-04-29T08:17:06.740Z,104.28
2023-04-29T08:18:06.759Z,100.87
2023-04-29T08:19:06.709Z,102.39
2023-04-29T08:20:06.710Z,100.09
2023-04-29T08:21:06.684Z,100.92
2023-04-29T08:22:06.659Z,103.09
2023-04-29T08:23:06.649Z,106.19
2023-04-29T08:24:06.627Z,104.38
2023-04-29T08:25:06.612Z,100.31
2023-04-29T08:26:06.603Z,104.03
2023-04-29T08:27:06.596Z,102.86
2023-04-29T08:28:06.573Z,104.46
2023-04-29T08:29:06.553Z,101.86
2023-04-29T08:30:06.540Z,102.19
2023-04-29T08:31:06.521Z,104.11
2023-04-29T08:32:06.738Z,103.84
2023-04-29T08:33:06.533Z,102.15
2023-04-29T08:34:06.478Z,101.04
2023-04-29T08:35:06.474Z,103.32
2023-04-29T08:36:06.457Z,102.84
2023-04-29T08:37:06.432Z,102.03
2023-04-29T08:38:06.801Z,104.16
2023-04-29T08:39:06.388Z,105.58
2023-04-29T08:40:06.388Z,100.22
2023-04-29T08:41:06.356Z,102.54
2023-04-29T08:42:06.345Z,101.06
2023-04-29T08:43:06.331Z,103.10
2023-04-29T08:44:06.320Z,103.36
2023-04-29T08:45:06.295Z,100.81
2023-04-29T08:46:06.305Z,100.65
2023-04-29T08:47:06.264Z,104.39
2023-04-29T08:48:06.345Z,101.61
2023-04-29T08:49:06.224Z,102.39
2023-04-29T08:50:06.206Z,103.16
2023-04-29T08:51:06.180Z,99.78
2023-04-29T08:52:06.164Z,103.68
2023-04-29T08:53:06.148Z,103.03
2023-04-29T08:54:06.118Z,100.90
2023-04-29T08:55:06.091Z,103.65
2023-04-29T08:56:06.079Z,102.57
2023-04-29T08:57:06.058Z,103.17
2023-04-29T08:58:06.051Z,99.47
2023-04-29T08:59:06.021Z,101.36
2023-04-29T09:00:06.002Z,101.32
2023-04-29T09:01:06.030Z,105.80
2023-04-29T09:02:05.991Z,106.73
2023-04-29T09:03:06.072Z,100.46
2023-04-29T09:04:06.184Z,100.09
2023-04-29T09:05:06.096Z,103.51
2023-04-29T09:06:05.914Z,102.72
2023-04-29T09:07:05.879Z,100.81
2023-04-29T09:08:05.860Z,102.84
2023-04-29T09:09:05.840Z,105.17
2023-04-29T09:10:05.813Z,102.82
2023-04-29T09:11:05.799Z,100.63
2023-04-29T09:12:05.770Z,102.82
2023-04-29T09:13:05.745Z,101.08
2023-04-29T09:14:05.738Z,105.88
2023-04-29T09:15:05.709Z,105.71
2023-04-29T09:16:05.816Z,101.78
2023-04-29T09:17:05.692Z,104.59
2023-04-29T09:18:05.722Z,103.23
2023-04-29T09:19:05.635Z,102.27
2023-04-29T09:20:05.620Z,102.33
2023-04-29T09:21:05.657Z,102.45
2023-04-29T09:22:05.581Z,104.10
2023-04-29T09:23:05.564Z,99.65
2023-04-29T09:24:05.544Z,103.67
2023-04-29T09:25:05.527Z,101.89
2023-04-29T09:26:05.495Z,102.06
2023-04-29T09:27:05.489Z,101.93
2023-04-29T09:28:05.458Z,101.73
2023-04-29T09:29:05.444Z,102.20
2023-04-29T09:30:05.429Z,100.89
2023-04-29T09:31:05.409Z,103.08
2023-04-29T09:32:05.416Z,103.70
2023-04-29T09:33:05.393Z,101.62
2023-04-29T09:34:05.362Z,103.45
2023-04-29T09:35:05.382Z,104.17
2023-04-29T09:36:05.379Z,104.55
2023-04-29T09:37:05.382Z,106.20
2023-04-29T09:38:05.382Z,101.53
2023-04-29T09:39:05.397Z,102.56
2023-04-29T09:40:05.414Z,105.63
2023-04-29T09:41:05.429Z,102.86
2023-04-29T09:42:05.429Z,99.80
2023-04-29T09:43:05.438Z,104.35
2023-04-29T09:44:05.448Z,104.90
2023-04-29T09:45:05.490Z,103.39
2023-04-29T09:46:05.537Z,105.58
2023-04-29T09:47:05.540Z,105.73
2023-04-29T09:48:05.531Z,102.12
2023-04-29T09:49:05.513Z,102.01
2023-04-29T09:50:05.524Z,103.51
2023-04-29T09:51:05.532Z,103.00
2023-04-29T09:52:06.307Z,104.24
2023-04-29T09:53:05.569Z,102.38
2023-04-29T09:54:05.569Z,106.32
2023-04-29T09:55:05.575Z,103.88
2023-04-29T09:56:05.574Z,102.96
2023-04-29T09:57:05.583Z,104.22
2023-04-29T09:58:05.590Z,106.54
2023-04-29T09:59:05.594Z,104.13
2023-04-29T10:00:05.613Z,105.40
2023-04-29T10:01:05.652Z,101.50
2023-04-29T10:02:05.662Z,101.20
2023-04-29T10:03:05.707Z,103.04
2023-04-29T10:04:05.697Z,105.88
2023-04-29T10:05:05.678Z,106.35
2023-04-29T10:06:05.689Z,104.06
2023-04-29T10:07:05.681Z,104.92
2023-04-29T10:08:05.698Z,103.01
2023-04-29T10:09:05.695Z,103.00
2023-04-29T10:10:05.718Z,105.18
2023-04-29T10:11:05.867Z,102.12
2023-04-29T10:12:05.723Z,102.89
2023-04-29T10:13:05.732Z,105.14
2023-04-29T10:14:05.757Z,100.92
2023-04-29T10:15:05.758Z,104.05
2023-04-29T10:16:07.580Z,100.69
2023-04-29T10:17:05.767Z,101.26
2023-04-29T10:18:05.805Z,101.66
2023-04-29T10:19:05.806Z,102.17
2023-04-29T10:20:05.967Z,98.53
2023-04-29T10:21:05.833Z,101.48
2023-04-29T10:22:05.846Z,102.25
2023-04-29T10:23:05.839Z,105.76
2023-04-29T10:24:05.857Z,100.21
2023-04-29T10:25:05.873Z,100.42
2023-04-29T10:26:05.878Z,103.04
2023-04-29T10:27:05.897Z,98.25
2023-04-29T10:28:05.893Z,100.91
2023-04-29T10:29:05.922Z,104.03
2023-04-29T10:30:05.928Z,100.09
2023-04-29T10:31:05.994Z,103.92
2023-04-29T10:32:05.952Z,100.62
2023-04-29T10:33:05.988Z,102.27
2023-04-29T10:34:05.957Z,102.64
2023-04-29T10:35:05.969Z,100.56
2023-04-29T10:36:05.985Z,103.24
2023-04-29T10:37:05.991Z,97.90
2023-04-29T10:38:06.007Z,103.27
2023-04-29T10:39:06.025Z,98.76
2023-04-29T10:40:06.009Z,97.48
2023-04-29T10:41:06.016Z,103.77
2023-04-29T10:42:06.028Z,100.32
2023-04-29T10:43:06.028Z,102.66
2023-04-29T10:44:06.053Z,98.82
2023-04-29T10:45:06.068Z,98.41
2023-04-29T10:46:06.150Z,100.42
2023-04-29T10:47:06.179Z,97.55
2023-04-29T10:48:06.094Z,102.20
2023-04-29T10:49:06.108Z,98.01
2023-04-29T10:50:06.124Z,99.47
2023-04-29T10:51:06.255Z,98.48
2023-04-29T10:52:06.142Z,96.69
2023-04-29T10:53:06.151Z,96.83
2023-04-29T10:54:06.159Z,100.02
2023-04-29T10:55:06.180Z,96.01
2023-04-29T10:56:06.189Z,94.87
2023-04-29T10:57:06.196Z,95.56
2023-04-29T10:58:06.200Z,95.44
2023-04-29T10:59:06.204Z,98.29
2023-04-29T11:00:06.200Z,97.88
2023-04-29T11:01:06.249Z,95.62
2023-04-29T11:02:06.297Z,97.39
2023-04-29T11:03:06.342Z,98.41
2023-04-29T11:04:06.337Z,96.38
2023-04-29T11:05:06.234Z,97.56
2023-04-29T11:06:06.229Z,97.42
2023-04-29T11:07:06.234Z,99.95
2023-04-29T11:08:06.230Z,100.05
2023-04-29T11:09:06.319Z,97.47
2023-04-29T11:10:06.240Z,98.97
2023-04-29T11:11:06.242Z,97.57
2023-04-29T11:12:06.345Z,98.56
2023-04-29T11:13:06.252Z,97.97
2023-04-29T11:14:06.248Z,101.40
2023-04-29T11:15:06.313Z,96.17
2023-04-29T11:16:06.275Z,98.88
2023-04-29T11:17:06.244Z,98.00
2023-04-29T11:18:06.270Z,97.27
2023-04-29T11:19:06.284Z,97.66
2023-04-29T11:20:06.258Z,98.05
2023-04-29T11:21:06.264Z,97.99
2023-04-29T11:22:06.274Z,99.66
2023-04-29T11:23:06.267Z,97.82
2023-04-29T11:24:06.359Z,98.74
2023-04-29T11:25:06.289Z,101.61
2023-04-29T11:26:06.284Z,101.10
2023-04-29T11:27:06.287Z,95.56
2023-04-29T11:28:06.290Z,100.88
2023-04-29T11:29:06.286Z,96.03
2023-04-29T11:30:06.294Z,96.59
2023-04-29T11:31:06.308Z,97.52
2023-04-29T11:32:06.472Z,97.26
2023-04-29T11:33:06.367Z,97.22
2023-04-29T11:34:06.294Z,100.08
2023-04-29T11:35:06.298Z,96.54
2023-04-29T11:36:06.288Z,98.28
2023-04-29T11:37:06.312Z,99.55
2023-04-29T11:38:06.295Z,97.94
2023-04-29T11:39:06.301Z,96.76
2023-04-29T11:40:06.294Z,99.34
2023-04-29T11:41:06.296Z,97.06
2023-04-29T11:42:06.287Z,97.22
2023-04-29T11:43:06.285Z,99.23
2023-04-29T11:44:06.303Z,99.47
2023-04-29T11:45:06.278Z,97.85
2023-04-29T11:46:06.328Z,99.86
2023-04-29T11:47:06.282Z,97.67
2023-04-29T11:48:06.315Z,102.20
2023-04-29T11:49:06.272Z,97.33
2023-04-29T11:50:06.270Z,99.68
2023-04-29T11:51:06.269Z,98.78
2023-04-29T11:52:06.287Z,97.90
2023-04-29T11:53:06.280Z,100.75
2023-04-29T11:54:07.596Z,97.10
2023-04-29T11:55:06.267Z,98.07
2023-04-29T11:56:06.268Z,100.78
2023-04-29T11:57:06.259Z,99.18
2023-04-29T11:58:06.247Z,96.53
2023-04-29T11:59:06.249Z,100.31
2023-04-29T12:00:08.685Z,96.76
2023-04-29T12:01:06.309Z,98.65
2023-04-29T12:02:06.260Z,99.75
2023-04-29T12:03:06.332Z,99.23
2023-04-29T12:04:06.309Z,99.74
2023-04-29T12:05:06.272Z,100.42
2023-04-29T12:06:07.184Z,99.33
2023-04-29T12:07:06.099Z,98.84
2023-04-29T12:08:06.073Z,99.83
2023-04-29T12:09:06.058Z,99.54
2023-04-29T12:10:06.037Z,100.65
2023-04-29T12:11:06.019Z,99.29
2023-04-29T12:12:08.009Z,96.44
2023-04-29T12:13:06.698Z,98.36
2023-04-29T12:14:05.975Z,97.01
2023-04-29T12:15:05.979Z,96.40
2023-04-29T12:16:06.015Z,95.52
2023-04-29T12:17:05.917Z,96.20
2023-04-29T12:18:05.928Z,97.89
2023-04-29T12:19:05.883Z,97.44
2023-04-29T12:20:05.862Z,95.14
2023-04-29T12:21:05.850Z,94.36
2023-04-29T12:22:08.082Z,95.13
2023-04-29T12:23:05.880Z,94.74
2023-04-29T12:24:05.873Z,93.44
2023-04-29T12:25:05.885Z,94.69
2023-04-29T12:26:05.877Z,94.36
2023-04-29T12:27:05.878Z,95.19
2023-04-29T12:28:07.888Z,93.46
2023-04-29T12:29:06.078Z,91.78
2023-04-29T12:30:06.052Z,95.19
2023-04-29T12:31:06.082Z,96.29
2023-04-29T12:32:06.069Z,92.79
2023-04-29T12:33:06.128Z,93.76